sensor_id;sensor_type;location;lat;lon;timestamp;P1;durP1;ratioP1;P2;durP2;ratioP2
71360;SDS011;59166;48.908;1.870;2022-11-28T00:04:41;10.75;;;4.18;;
71360;SDS011;59166;48.908;1.870;2022-11-28T00:09:42;11.60;;;4.60;;
71360;SDS011;59166;48.908;1.870;2022-11-28T00:14:43;12.70;;;4.50;;
71360;SDS011;59166;48.908;1.870;2022-11-28T00:19:45;10.05;;;4.18;;
71360;SDS011;59166;48.908;1.870;2022-11-28T00:24:46;13.17;;;4.43;;
71360;SDS011;59166;48.908;1.870;2022-11-28T00:29:47;10.80;;;4.47;;
71360;SDS011;59166;48.908;1.870;2022-11-28T00:34:49;10.60;;;4.53;;
71360;SDS011;59166;48.908;1.870;2022-11-28T00:39:50;11.13;;;4.80;;
71360;SDS011;59166;48.908;1.870;2022-11-28T00:44:51;10.85;;;4.97;;
71360;SDS011;59166;48.908;1.870;2022-11-28T00:49:53;11.87;;;5.00;;
71360;SDS011;59166;48.908;1.870;2022-11-28T00:54:54;9.98;;;4.82;;
71360;SDS011;59166;48.908;1.870;2022-11-28T00:59:55;12.93;;;4.73;;
71360;SDS011;59166;48.908;1.870;2022-11-28T01:04:58;10.93;;;4.80;;
71360;SDS011;59166;48.908;1.870;2022-11-28T01:09:59;11.77;;;4.78;;
71360;SDS011;59166;48.908;1.870;2022-11-28T01:15:00;11.70;;;4.90;;
71360;SDS011;59166;48.908;1.870;2022-11-28T01:20:03;13.13;;;4.97;;
71360;SDS011;59166;48.908;1.870;2022-11-28T01:25:06;12.03;;;5.13;;
71360;SDS011;59166;48.908;1.870;2022-11-28T01:30:07;12.60;;;5.17;;
71360;SDS011;59166;48.908;1.870;2022-11-28T01:35:09;11.13;;;5.05;;
71360;SDS011;59166;48.908;1.870;2022-11-28T01:40:10;12.23;;;5.30;;
71360;SDS011;59166;48.908;1.870;2022-11-28T01:45:16;13.10;;;5.80;;
71360;SDS011;59166;48.908;1.870;2022-11-28T01:50:21;14.35;;;5.53;;
71360;SDS011;59166;48.908;1.870;2022-11-28T01:55:29;12.45;;;5.32;;
71360;SDS011;59166;48.908;1.870;2022-11-28T02:00:31;12.27;;;5.30;;
71360;SDS011;59166;48.908;1.870;2022-11-28T02:05:34;12.73;;;5.28;;
71360;SDS011;59166;48.908;1.870;2022-11-28T02:10:39;12.20;;;5.25;;
71360;SDS011;59166;48.908;1.870;2022-11-28T02:15:56;12.60;;;5.13;;
71360;SDS011;59166;48.908;1.870;2022-11-28T02:21:18;11.70;;;5.43;;
71360;SDS011;59166;48.908;1.870;2022-11-28T02:26:44;14.18;;;5.85;;
71360;SDS011;59166;48.908;1.870;2022-11-28T02:37:31;14.87;;;5.87;;
71360;SDS011;59166;48.908;1.870;2022-11-28T02:42:53;14.32;;;5.97;;
71360;SDS011;59166;48.908;1.870;2022-11-28T02:48:25;12.85;;;6.07;;
71360;SDS011;59166;48.908;1.870;2022-11-28T02:53:31;13.97;;;5.70;;
71360;SDS011;59166;48.908;1.870;2022-11-28T02:58:34;12.85;;;5.75;;
71360;SDS011;59166;48.908;1.870;2022-11-28T03:14:54;13.27;;;6.10;;
71360;SDS011;59166;48.908;1.870;2022-11-28T03:20:00;14.80;;;6.07;;
71360;SDS011;59166;48.908;1.870;2022-11-28T03:25:16;14.55;;;6.05;;
71360;SDS011;59166;48.908;1.870;2022-11-28T03:30:27;12.20;;;5.80;;
71360;SDS011;59166;48.908;1.870;2022-11-28T03:35:35;13.90;;;6.03;;
71360;SDS011;59166;48.908;1.870;2022-11-28T03:40:43;14.50;;;5.80;;
71360;SDS011;59166;48.908;1.870;2022-11-28T03:45:50;15.03;;;6.40;;
71360;SDS011;59166;48.908;1.870;2022-11-28T03:50:57;13.80;;;6.55;;
71360;SDS011;59166;48.908;1.870;2022-11-28T03:56:03;16.27;;;6.03;;
71360;SDS011;59166;48.908;1.870;2022-11-28T04:01:12;13.70;;;5.93;;
71360;SDS011;59166;48.908;1.870;2022-11-28T04:06:45;16.07;;;6.20;;
71360;SDS011;59166;48.908;1.870;2022-11-28T04:17:49;15.13;;;6.13;;
71360;SDS011;59166;48.908;1.870;2022-11-28T04:23:31;14.33;;;5.87;;
71360;SDS011;59166;48.908;1.870;2022-11-28T04:34:25;15.68;;;6.25;;
71360;SDS011;59166;48.908;1.870;2022-11-28T04:46:33;13.35;;;5.78;;
71360;SDS011;59166;48.908;1.870;2022-11-28T04:51:24;15.25;;;5.93;;
71360;SDS011;59166;48.908;1.870;2022-11-28T04:56:58;15.70;;;6.20;;
71360;SDS011;59166;48.908;1.870;2022-11-28T05:02:21;14.80;;;5.90;;
71360;SDS011;59166;48.908;1.870;2022-11-28T05:07:23;15.05;;;5.93;;
71360;SDS011;59166;48.908;1.870;2022-11-28T05:12:41;13.60;;;5.65;;
71360;SDS011;59166;48.908;1.870;2022-11-28T05:18:00;13.03;;;5.50;;
71360;SDS011;59166;48.908;1.870;2022-11-28T05:23:20;15.02;;;5.60;;
71360;SDS011;59166;48.908;1.870;2022-11-28T05:28:26;13.00;;;5.65;;
71360;SDS011;59166;48.908;1.870;2022-11-28T05:33:53;15.13;;;5.60;;
71360;SDS011;59166;48.908;1.870;2022-11-28T05:38:55;12.90;;;5.28;;
71360;SDS011;59166;48.908;1.870;2022-11-28T05:44:11;13.63;;;5.20;;
71360;SDS011;59166;48.908;1.870;2022-11-28T05:49:31;13.83;;;5.87;;
71360;SDS011;59166;48.908;1.870;2022-11-28T05:54:44;14.70;;;5.17;;
71360;SDS011;59166;48.908;1.870;2022-11-28T06:00:09;14.82;;;5.47;;
71360;SDS011;59166;48.908;1.870;2022-11-28T06:05:21;13.10;;;5.20;;
71360;SDS011;59166;48.908;1.870;2022-11-28T06:10:58;13.40;;;5.17;;
71360;SDS011;59166;48.908;1.870;2022-11-28T06:16:16;13.40;;;5.45;;
71360;SDS011;59166;48.908;1.870;2022-11-28T06:21:32;15.38;;;5.03;;
71360;SDS011;59166;48.908;1.870;2022-11-28T06:26:57;15.20;;;5.13;;
71360;SDS011;59166;48.908;1.870;2022-11-28T06:37:32;14.93;;;4.97;;
71360;SDS011;59166;48.908;1.870;2022-11-28T06:42:38;17.10;;;4.73;;
71360;SDS011;59166;48.908;1.870;2022-11-28T06:47:43;15.33;;;5.10;;
71360;SDS011;59166;48.908;1.870;2022-11-28T06:52:45;13.55;;;5.30;;
71360;SDS011;59166;48.908;1.870;2022-11-28T06:57:46;12.75;;;5.45;;
71360;SDS011;59166;48.908;1.870;2022-11-28T07:02:47;12.70;;;5.10;;
71360;SDS011;59166;48.908;1.870;2022-11-28T07:07:50;14.55;;;5.00;;
71360;SDS011;59166;48.908;1.870;2022-11-28T07:12:52;12.07;;;5.03;;
71360;SDS011;59166;48.908;1.870;2022-11-28T07:17:53;13.40;;;4.60;;
71360;SDS011;59166;48.908;1.870;2022-11-28T07:22:56;13.85;;;4.85;;
71360;SDS011;59166;48.908;1.870;2022-11-28T07:27:58;15.67;;;4.63;;
71360;SDS011;59166;48.908;1.870;2022-11-28T07:32:59;11.88;;;4.60;;
71360;SDS011;59166;48.908;1.870;2022-11-28T07:38:01;14.90;;;4.65;;
71360;SDS011;59166;48.908;1.870;2022-11-28T07:43:02;14.13;;;4.70;;
71360;SDS011;59166;48.908;1.870;2022-11-28T07:48:03;12.43;;;4.05;;
71360;SDS011;59166;48.908;1.870;2022-11-28T07:53:06;15.40;;;5.00;;
71360;SDS011;59166;48.908;1.870;2022-11-28T07:58:06;13.20;;;4.20;;
71360;SDS011;59166;48.908;1.870;2022-11-28T08:03:07;13.13;;;4.05;;
71360;SDS011;59166;48.908;1.870;2022-11-28T08:08:09;13.87;;;4.30;;
71360;SDS011;59166;48.908;1.870;2022-11-28T08:13:10;16.88;;;4.68;;
71360;SDS011;59166;48.908;1.870;2022-11-28T08:18:12;13.73;;;4.80;;
71360;SDS011;59166;48.908;1.870;2022-11-28T08:23:14;19.60;;;4.70;;
71360;SDS011;59166;48.908;1.870;2022-11-28T08:28:15;17.85;;;4.25;;
71360;SDS011;59166;48.908;1.870;2022-11-28T08:33:16;13.67;;;4.07;;
71360;SDS011;59166;48.908;1.870;2022-11-28T08:38:18;12.05;;;4.05;;
71360;SDS011;59166;48.908;1.870;2022-11-28T08:43:19;16.47;;;4.93;;
71360;SDS011;59166;48.908;1.870;2022-11-28T08:48:20;16.65;;;4.47;;
71360;SDS011;59166;48.908;1.870;2022-11-28T08:53:22;15.20;;;4.17;;
71360;SDS011;59166;48.908;1.870;2022-11-28T08:58:23;12.55;;;3.67;;
71360;SDS011;59166;48.908;1.870;2022-11-28T09:03:24;13.13;;;3.30;;
71360;SDS011;59166;48.908;1.870;2022-11-28T09:08:26;12.37;;;3.07;;
71360;SDS011;59166;48.908;1.870;2022-11-28T09:13:27;11.95;;;2.80;;
71360;SDS011;59166;48.908;1.870;2022-11-28T09:18:28;15.00;;;3.10;;
71360;SDS011;59166;48.908;1.870;2022-11-28T09:23:31;12.70;;;2.95;;
71360;SDS011;59166;48.908;1.870;2022-11-28T09:28:31;16.50;;;3.80;;
71360;SDS011;59166;48.908;1.870;2022-11-28T09:33:32;15.03;;;4.30;;
71360;SDS011;59166;48.908;1.870;2022-11-28T09:38:35;15.57;;;4.20;;
71360;SDS011;59166;48.908;1.870;2022-11-28T09:43:37;25.50;;;7.82;;
71360;SDS011;59166;48.908;1.870;2022-11-28T09:48:43;17.63;;;5.80;;
71360;SDS011;59166;48.908;1.870;2022-11-28T09:53:54;14.60;;;4.68;;
71360;SDS011;59166;48.908;1.870;2022-11-28T09:59:02;17.85;;;4.13;;
71360;SDS011;59166;48.908;1.870;2022-11-28T10:04:35;17.57;;;3.53;;
71360;SDS011;59166;48.908;1.870;2022-11-28T10:09:47;10.67;;;3.70;;
71360;SDS011;59166;48.908;1.870;2022-11-28T10:15:14;13.45;;;4.20;;
71360;SDS011;59166;48.908;1.870;2022-11-28T10:20:50;13.52;;;3.80;;
71360;SDS011;59166;48.908;1.870;2022-11-28T10:26:03;12.73;;;3.83;;
71360;SDS011;59166;48.908;1.870;2022-11-28T10:31:18;18.88;;;4.53;;
71360;SDS011;59166;48.908;1.870;2022-11-28T10:36:26;13.35;;;3.92;;
71360;SDS011;59166;48.908;1.870;2022-11-28T10:41:33;16.90;;;4.37;;
71360;SDS011;59166;48.908;1.870;2022-11-28T10:46:40;15.63;;;4.60;;
71360;SDS011;59166;48.908;1.870;2022-11-28T10:51:52;17.75;;;3.30;;
71360;SDS011;59166;48.908;1.870;2022-11-28T10:57:05;12.70;;;2.63;;
71360;SDS011;59166;48.908;1.870;2022-11-28T11:02:18;7.60;;;1.70;;
71360;SDS011;59166;48.908;1.870;2022-11-28T11:07:22;9.65;;;2.00;;
71360;SDS011;59166;48.908;1.870;2022-11-28T11:12:29;13.00;;;2.60;;
71360;SDS011;59166;48.908;1.870;2022-11-28T11:17:34;16.53;;;2.50;;
71360;SDS011;59166;48.908;1.870;2022-11-28T11:22:35;13.05;;;2.40;;
71360;SDS011;59166;48.908;1.870;2022-11-28T11:27:37;12.70;;;2.40;;
71360;SDS011;59166;48.908;1.870;2022-11-28T11:32:45;13.43;;;2.37;;
71360;SDS011;59166;48.908;1.870;2022-11-28T11:37:46;11.07;;;2.30;;
71360;SDS011;59166;48.908;1.870;2022-11-28T11:42:51;11.03;;;2.40;;
71360;SDS011;59166;48.908;1.870;2022-11-28T11:47:54;11.52;;;2.30;;
71360;SDS011;59166;48.908;1.870;2022-11-28T11:53:00;15.13;;;2.83;;
71360;SDS011;59166;48.908;1.870;2022-11-28T11:58:04;13.53;;;2.73;;
71360;SDS011;59166;48.908;1.870;2022-11-28T12:03:11;13.20;;;2.57;;
71360;SDS011;59166;48.908;1.870;2022-11-28T12:08:21;16.05;;;2.50;;
71360;SDS011;59166;48.908;1.870;2022-11-28T12:13:31;8.90;;;1.88;;
71360;SDS011;59166;48.908;1.870;2022-11-28T12:23:56;13.45;;;2.67;;
71360;SDS011;59166;48.908;1.870;2022-11-28T12:34:30;10.47;;;2.23;;
71360;SDS011;59166;48.908;1.870;2022-11-28T12:39:41;11.30;;;2.00;;
71360;SDS011;59166;48.908;1.870;2022-11-28T12:45:13;12.98;;;2.17;;
71360;SDS011;59166;48.908;1.870;2022-11-28T12:50:26;9.07;;;1.60;;
71360;SDS011;59166;48.908;1.870;2022-11-28T12:55:32;8.53;;;1.70;;
71360;SDS011;59166;48.908;1.870;2022-11-28T13:00:59;9.35;;;1.73;;
71360;SDS011;59166;48.908;1.870;2022-11-28T13:06:12;8.93;;;1.55;;
71360;SDS011;59166;48.908;1.870;2022-11-28T13:11:40;10.13;;;1.40;;
71360;SDS011;59166;48.908;1.870;2022-11-28T13:16:49;9.80;;;1.60;;
71360;SDS011;59166;48.908;1.870;2022-11-28T13:21:53;10.77;;;1.70;;
71360;SDS011;59166;48.908;1.870;2022-11-28T13:26:59;10.33;;;1.50;;
71360;SDS011;59166;48.908;1.870;2022-11-28T13:32:11;5.38;;;1.40;;
71360;SDS011;59166;48.908;1.870;2022-11-28T13:37:17;11.57;;;2.00;;
71360;SDS011;59166;48.908;1.870;2022-11-28T13:42:28;7.23;;;1.50;;
71360;SDS011;59166;48.908;1.870;2022-11-28T13:47:36;6.87;;;1.70;;
71360;SDS011;59166;48.908;1.870;2022-11-28T13:52:40;10.43;;;1.80;;
71360;SDS011;59166;48.908;1.870;2022-11-28T13:57:42;9.73;;;1.65;;
71360;SDS011;59166;48.908;1.870;2022-11-28T14:02:45;8.70;;;1.60;;
71360;SDS011;59166;48.908;1.870;2022-11-28T14:07:47;6.93;;;1.50;;
71360;SDS011;59166;48.908;1.870;2022-11-28T14:12:52;8.10;;;1.70;;
71360;SDS011;59166;48.908;1.870;2022-11-28T14:18:17;8.67;;;1.40;;
71360;SDS011;59166;48.908;1.870;2022-11-28T14:23:31;7.28;;;1.30;;
71360;SDS011;59166;48.908;1.870;2022-11-28T14:28:42;7.35;;;1.73;;
71360;SDS011;59166;48.908;1.870;2022-11-28T14:33:45;8.83;;;1.47;;
71360;SDS011;59166;48.908;1.870;2022-11-28T14:49:43;10.90;;;1.67;;
71360;SDS011;59166;48.908;1.870;2022-11-28T14:54:44;8.45;;;1.92;;
71360;SDS011;59166;48.908;1.870;2022-11-28T14:59:46;10.00;;;1.70;;
71360;SDS011;59166;48.908;1.870;2022-11-28T15:04:55;7.17;;;1.40;;
71360;SDS011;59166;48.908;1.870;2022-11-28T15:10:22;10.47;;;1.63;;
71360;SDS011;59166;48.908;1.870;2022-11-28T15:15:34;6.22;;;1.25;;
71360;SDS011;59166;48.908;1.870;2022-11-28T15:20:37;8.93;;;1.70;;
71360;SDS011;59166;48.908;1.870;2022-11-28T15:25:44;12.47;;;1.67;;
71360;SDS011;59166;48.908;1.870;2022-11-28T15:30:52;8.35;;;1.48;;
71360;SDS011;59166;48.908;1.870;2022-11-28T15:35:57;7.95;;;1.48;;
71360;SDS011;59166;48.908;1.870;2022-11-28T15:41:07;10.13;;;1.47;;
71360;SDS011;59166;48.908;1.870;2022-11-28T15:46:12;7.90;;;1.45;;
71360;SDS011;59166;48.908;1.870;2022-11-28T15:51:28;8.02;;;1.60;;
71360;SDS011;59166;48.908;1.870;2022-11-28T15:56:31;8.30;;;1.57;;
71360;SDS011;59166;48.908;1.870;2022-11-28T16:01:32;11.23;;;1.67;;
71360;SDS011;59166;48.908;1.870;2022-11-28T16:06:35;7.95;;;1.90;;
71360;SDS011;59166;48.908;1.870;2022-11-28T16:11:38;10.20;;;1.90;;
71360;SDS011;59166;48.908;1.870;2022-11-28T16:16:46;7.37;;;1.90;;
71360;SDS011;59166;48.908;1.870;2022-11-28T16:21:59;10.80;;;2.30;;
71360;SDS011;59166;48.908;1.870;2022-11-28T16:27:04;10.35;;;2.22;;
71360;SDS011;59166;48.908;1.870;2022-11-28T16:32:06;10.60;;;2.67;;
71360;SDS011;59166;48.908;1.870;2022-11-28T16:37:22;10.02;;;2.42;;
71360;SDS011;59166;48.908;1.870;2022-11-28T16:42:24;11.00;;;2.60;;
71360;SDS011;59166;48.908;1.870;2022-11-28T16:47:25;10.53;;;2.20;;
71360;SDS011;59166;48.908;1.870;2022-11-28T16:52:37;8.25;;;2.70;;
71360;SDS011;59166;48.908;1.870;2022-11-28T16:57:43;10.38;;;2.92;;
71360;SDS011;59166;48.908;1.870;2022-11-28T17:02:45;11.30;;;3.20;;
71360;SDS011;59166;48.908;1.870;2022-11-28T17:07:51;14.65;;;5.25;;
71360;SDS011;59166;48.908;1.870;2022-11-28T17:12:52;17.02;;;5.80;;
71360;SDS011;59166;48.908;1.870;2022-11-28T17:17:54;20.20;;;7.73;;
71360;SDS011;59166;48.908;1.870;2022-11-28T17:22:56;17.90;;;4.93;;
71360;SDS011;59166;48.908;1.870;2022-11-28T17:27:57;13.45;;;4.15;;
71360;SDS011;59166;48.908;1.870;2022-11-28T17:38:19;14.00;;;4.25;;
71360;SDS011;59166;48.908;1.870;2022-11-28T17:43:28;11.95;;;4.40;;
71360;SDS011;59166;48.908;1.870;2022-11-28T17:48:31;13.03;;;4.17;;
71360;SDS011;59166;48.908;1.870;2022-11-28T17:53:34;11.23;;;3.85;;
71360;SDS011;59166;48.908;1.870;2022-11-28T17:58:36;12.32;;;3.45;;
71360;SDS011;59166;48.908;1.870;2022-11-28T18:03:37;13.07;;;4.57;;
71360;SDS011;59166;48.908;1.870;2022-11-28T18:08:39;33.70;;;9.50;;
71360;SDS011;59166;48.908;1.870;2022-11-28T18:13:40;18.40;;;6.23;;
71360;SDS011;59166;48.908;1.870;2022-11-28T18:18:42;15.37;;;5.57;;
71360;SDS011;59166;48.908;1.870;2022-11-28T18:23:45;11.77;;;4.88;;
71360;SDS011;59166;48.908;1.870;2022-11-28T18:28:47;17.27;;;5.20;;
71360;SDS011;59166;48.908;1.870;2022-11-28T18:33:48;16.60;;;6.63;;
71360;SDS011;59166;48.908;1.870;2022-11-28T18:38:54;13.52;;;4.50;;
71360;SDS011;59166;48.908;1.870;2022-11-28T18:43:56;10.87;;;3.43;;
71360;SDS011;59166;48.908;1.870;2022-11-28T18:48:58;7.87;;;2.47;;
71360;SDS011;59166;48.908;1.870;2022-11-28T18:54:01;12.50;;;4.47;;
71360;SDS011;59166;48.908;1.870;2022-11-28T18:59:02;11.23;;;3.67;;
71360;SDS011;59166;48.908;1.870;2022-11-28T19:04:04;10.40;;;3.38;;
71360;SDS011;59166;48.908;1.870;2022-11-28T19:09:08;7.97;;;2.47;;
71360;SDS011;59166;48.908;1.870;2022-11-28T19:14:12;8.23;;;2.57;;
71360;SDS011;59166;48.908;1.870;2022-11-28T19:19:14;9.95;;;3.13;;
71360;SDS011;59166;48.908;1.870;2022-11-28T19:24:17;11.23;;;3.88;;
71360;SDS011;59166;48.908;1.870;2022-11-28T19:29:18;11.70;;;3.30;;
71360;SDS011;59166;48.908;1.870;2022-11-28T19:34:19;7.95;;;2.47;;
71360;SDS011;59166;48.908;1.870;2022-11-28T19:39:22;9.33;;;2.40;;
71360;SDS011;59166;48.908;1.870;2022-11-28T19:44:24;9.73;;;3.03;;
71360;SDS011;59166;48.908;1.870;2022-11-28T19:49:25;9.27;;;2.72;;
71360;SDS011;59166;48.908;1.870;2022-11-28T19:54:27;12.13;;;3.57;;
71360;SDS011;59166;48.908;1.870;2022-11-28T19:59:28;9.15;;;3.10;;
71360;SDS011;59166;48.908;1.870;2022-11-28T20:04:29;23.63;;;8.48;;
71360;SDS011;59166;48.908;1.870;2022-11-28T20:09:32;13.63;;;5.03;;
71360;SDS011;59166;48.908;1.870;2022-11-28T20:14:33;11.75;;;3.85;;
71360;SDS011;59166;48.908;1.870;2022-11-28T20:19:34;12.13;;;3.97;;
71360;SDS011;59166;48.908;1.870;2022-11-28T20:24:37;9.63;;;3.20;;
71360;SDS011;59166;48.908;1.870;2022-11-28T20:29:38;10.60;;;3.33;;
71360;SDS011;59166;48.908;1.870;2022-11-28T20:34:39;11.70;;;3.70;;
71360;SDS011;59166;48.908;1.870;2022-11-28T20:39:41;10.05;;;3.88;;
71360;SDS011;59166;48.908;1.870;2022-11-28T20:44:42;15.97;;;5.37;;
71360;SDS011;59166;48.908;1.870;2022-11-28T20:49:43;14.80;;;5.63;;
71360;SDS011;59166;48.908;1.870;2022-11-28T20:54:45;12.18;;;4.82;;
71360;SDS011;59166;48.908;1.870;2022-11-28T20:59:46;11.53;;;3.60;;
71360;SDS011;59166;48.908;1.870;2022-11-28T21:04:50;10.75;;;3.67;;
71360;SDS011;59166;48.908;1.870;2022-11-28T21:09:54;12.23;;;3.67;;
71360;SDS011;59166;48.908;1.870;2022-11-28T21:14:55;11.53;;;3.83;;
71360;SDS011;59166;48.908;1.870;2022-11-28T21:19:56;8.83;;;3.30;;
71360;SDS011;59166;48.908;1.870;2022-11-28T21:24:58;9.80;;;4.30;;
71360;SDS011;59166;48.908;1.870;2022-11-28T21:29:59;11.73;;;3.60;;
71360;SDS011;59166;48.908;1.870;2022-11-28T21:35:00;13.63;;;4.50;;
71360;SDS011;59166;48.908;1.870;2022-11-28T21:40:02;12.63;;;4.83;;
71360;SDS011;59166;48.908;1.870;2022-11-28T21:45:04;12.82;;;4.30;;
71360;SDS011;59166;48.908;1.870;2022-11-28T21:50:06;11.33;;;4.83;;
71360;SDS011;59166;48.908;1.870;2022-11-28T21:55:08;16.20;;;5.67;;
71360;SDS011;59166;48.908;1.870;2022-11-28T22:00:10;16.85;;;5.63;;
71360;SDS011;59166;48.908;1.870;2022-11-28T22:05:11;13.10;;;5.05;;
71360;SDS011;59166;48.908;1.870;2022-11-28T22:10:14;13.10;;;4.33;;
71360;SDS011;59166;48.908;1.870;2022-11-28T22:15:14;10.48;;;4.20;;
71360;SDS011;59166;48.908;1.870;2022-11-28T22:20:15;13.30;;;4.33;;
71360;SDS011;59166;48.908;1.870;2022-11-28T22:25:18;11.40;;;4.05;;
71360;SDS011;59166;48.908;1.870;2022-11-28T22:30:18;11.68;;;4.60;;
71360;SDS011;59166;48.908;1.870;2022-11-28T22:35:19;12.37;;;4.67;;
71360;SDS011;59166;48.908;1.870;2022-11-28T22:40:22;11.13;;;4.05;;
71360;SDS011;59166;48.908;1.870;2022-11-28T22:45:22;10.93;;;4.23;;
71360;SDS011;59166;48.908;1.870;2022-11-28T22:50:23;11.15;;;4.07;;
71360;SDS011;59166;48.908;1.870;2022-11-28T22:55:26;11.60;;;4.20;;
71360;SDS011;59166;48.908;1.870;2022-11-28T23:00:26;10.55;;;4.05;;
71360;SDS011;59166;48.908;1.870;2022-11-28T23:05:27;11.55;;;3.83;;
71360;SDS011;59166;48.908;1.870;2022-11-28T23:10:29;10.10;;;3.97;;
71360;SDS011;59166;48.908;1.870;2022-11-28T23:15:30;9.63;;;3.67;;
71360;SDS011;59166;48.908;1.870;2022-11-28T23:20:31;9.83;;;3.57;;
71360;SDS011;59166;48.908;1.870;2022-11-28T23:25:33;9.55;;;3.72;;
71360;SDS011;59166;48.908;1.870;2022-11-28T23:30:34;14.30;;;3.90;;
71360;SDS011;59166;48.908;1.870;2022-11-28T23:35:35;9.95;;;3.67;;
71360;SDS011;59166;48.908;1.870;2022-11-28T23:40:37;13.00;;;3.67;;
71360;SDS011;59166;48.908;1.870;2022-11-28T23:45:38;10.15;;;3.55;;
71360;SDS011;59166;48.908;1.870;2022-11-28T23:50:39;9.87;;;3.40;;
71360;SDS011;59166;48.908;1.870;2022-11-28T23:55:42;12.20;;;3.45;;
